^^
MeteoGriva-Weather Station Historical Data
Daily Summary for December 04, 2020 Units:  Both    English   Metric
Daily Weekly Monthly Yearly Custom
  High: Low: Average:
Temperature: 48.9 °F /  9.4 °C 43.2 °F /  6.2 °C 46.2 °F /  7.9 °C
Dew Point: 48.2 °F /  9 °C 42.3 °F /  5.7 °C 45.3 °F /  7.4 °C
Humidity: 100% 92.8% 97%
Wind Speed: 3.9mph /  6.3km/h - 1.2mph /  2km/h
Wind Gust: 8.9mph /  14.3km/h - -
Wind- - SW
Pressure: 30 in /  1017.3 hPa 29.9 in /  1012.9 hPa -
Precipitation: 1.4 in /  35.6 mm    
Historical Graphs
 
 
Tabular Data for December 04, 2020
Time Temperature Dew Point Pressure Wind Wind Speed Wind Gust Humidity Rainfall Rate (Hourly) solar
00:04 43.7 °F /  6.5 °C 43.5 °F /  6.4 °C 30in /  1017.3hPa WSW 0.4mph /  0.7km/h 2.9mph /  4.7km/h 99.1% 0.03in /  0.8mm 0 W/m2
00:09 43.7 °F /  6.5 °C 43.5 °F /  6.4 °C 30in /  1017.3hPa SW 0.4mph /  0.6km/h 2.2mph /  3.5km/h 99.3% 0.03in /  0.8mm 0 W/m2
00:14 43.7 °F /  6.5 °C 43.3 °F /  6.3 °C 30in /  1017.3hPa West 0.4mph /  0.6km/h 2.2mph /  3.5km/h 98.6% 0.04in /  1.0mm 0 W/m2
00:19 43.7 °F /  6.5 °C 43.3 °F /  6.3 °C 30in /  1017.3hPa WSW 0.7mph /  1.1km/h 2.2mph /  3.5km/h 98.7% 0in /  0.0mm 0 W/m2
00:24 43.9 °F /  6.6 °C 43.2 °F /  6.2 °C 30in /  1017.3hPa NW 1.2mph /  2km/h 4.5mph /  7.2km/h 97.8% 0.01in /  0.2mm 0 W/m2
00:29 43.9 °F /  6.6 °C 43.3 °F /  6.3 °C 30in /  1016.9hPa North 3.4mph /  5.4km/h 6mph /  9.7km/h 97.5% 0.03in /  0.8mm 0 W/m2
00:34 44.1 °F /  6.7 °C 43.7 °F /  6.5 °C 30in /  1017.3hPa East 1.2mph /  2km/h 3.8mph /  6.1km/h 98.7% 0.02in /  0.5mm 0 W/m2
00:39 43.9 °F /  6.6 °C 43.7 °F /  6.5 °C 30in /  1017.3hPa WNW 1mph /  1.6km/h 3.8mph /  6.1km/h 99.3% 0.01in /  0.2mm 0 W/m2
00:44 43.7 °F /  6.5 °C 43.3 °F /  6.3 °C 30in /  1016.9hPa North 0.9mph /  1.5km/h 2.7mph /  4.3km/h 98.7% 0.06in /  1.5mm 0 W/m2
00:49 43.9 °F /  6.6 °C 43.3 °F /  6.3 °C 30in /  1016.9hPa ESE 0.6mph /  0.9km/h 2.9mph /  4.7km/h 97.8% 0.06in /  1.5mm 0 W/m2
00:54 43.9 °F /  6.6 °C 43.7 °F /  6.5 °C 30in /  1016.9hPa NW 0.5mph /  0.8km/h 2.9mph /  4.7km/h 98.9% 0.01in /  0.2mm 0 W/m2
00:59 43.9 °F /  6.6 °C 43.5 °F /  6.4 °C 30in /  1016.9hPa ENE 0.8mph /  1.3km/h 4mph /  6.4km/h 98.4% 0.01in /  0.2mm 0 W/m2
01:04 43.9 °F /  6.6 °C 43.5 °F /  6.4 °C 30in /  1016.9hPa ENE 0.7mph /  1.2km/h 4mph /  6.4km/h 98.4% 0in /  0.0mm 0 W/m2
01:09 44.1 °F /  6.7 °C 43.9 °F /  6.6 °C 30in /  1016.6hPa North 0.5mph /  0.8km/h 2mph /  3.2km/h 99% 0in /  0.0mm 0 W/m2
01:14 44.1 °F /  6.7 °C 43.9 °F /  6.6 °C 30in /  1016.6hPa East 0.3mph /  0.5km/h 2mph /  3.2km/h 99% 0in /  0.0mm 0 W/m2
01:19 44.1 °F /  6.7 °C 43.7 °F /  6.5 °C 30in /  1016.6hPa NNW 0.2mph /  0.4km/h 1.8mph /  2.9km/h 98.8% 0in /  0.0mm 0 W/m2
01:24 43.9 °F /  6.6 °C 43.7 °F /  6.5 °C 30in /  1016.6hPa East 1.1mph /  1.7km/h 3.1mph /  5km/h 99% 0in /  0.0mm 0 W/m2
01:29 43.9 °F /  6.6 °C 43.5 °F /  6.4 °C 30in /  1016.6hPa SSE 2.1mph /  3.3km/h 5.4mph /  8.7km/h 98.7% 0in /  0.0mm 0 W/m2
01:34 43.9 °F /  6.6 °C 43.5 °F /  6.4 °C 30in /  1016.6hPa SE 1.7mph /  2.8km/h 4.9mph /  7.9km/h 98.7% 0in /  0.0mm 0 W/m2
01:39 43.9 °F /  6.6 °C 43.7 °F /  6.5 °C 30in /  1016.6hPa SSW 1.7mph /  2.7km/h 5.4mph /  8.7km/h 98.8% 0in /  0.0mm 0 W/m2
01:44 43.7 °F /  6.5 °C 43.7 °F /  6.5 °C 30in /  1016.6hPa SSW 1.4mph /  2.3km/h 3.6mph /  5.8km/h 99.2% 0in /  0.0mm 0 W/m2
01:49 43.7 °F /  6.5 °C 43.5 °F /  6.4 °C 30in /  1016.6hPa SSW 1.1mph /  1.8km/h 4.5mph /  7.2km/h 99.2% 0in /  0.0mm 0 W/m2
01:54 43.7 °F /  6.5 °C 43.5 °F /  6.4 °C 30in /  1016.6hPa West 0.6mph /  1km/h 3.6mph /  5.8km/h 99% 0in /  0.0mm 0 W/m2
01:59 43.7 °F /  6.5 °C 43.5 °F /  6.4 °C 30in /  1016.6hPa WNW 0.5mph /  0.8km/h 3.8mph /  6.1km/h 99% 0in /  0.0mm 0 W/m2
02:04 43.5 °F /  6.4 °C 43.3 °F /  6.3 °C 30in /  1016.6hPa WNW 0.2mph /  0.4km/h 1.8mph /  2.9km/h 99% 0in /  0.0mm 0 W/m2
02:09 43.5 °F /  6.4 °C 43.3 °F /  6.3 °C 30in /  1016.3hPa SSW 1.7mph /  2.7km/h 4.9mph /  7.9km/h 99% 0in /  0.0mm 0 W/m2
02:14 43.7 °F /  6.5 °C 43.3 °F /  6.3 °C 30in /  1016.3hPa SSW 1.5mph /  2.4km/h 4.9mph /  7.9km/h 98.6% 0in /  0.0mm 0 W/m2
02:19 43.7 °F /  6.5 °C 43.7 °F /  6.5 °C 30in /  1016.3hPa SW 0.4mph /  0.6km/h 3.6mph /  5.8km/h 99.9% 0in /  0.0mm 0 W/m2
02:24 43.5 °F /  6.4 °C 43.3 °F /  6.3 °C 30in /  1016.3hPa SSE 0.6mph /  0.9km/h 3.1mph /  5km/h 99.3% 0in /  0.0mm 0 W/m2
02:29 43.7 °F /  6.5 °C 43.7 °F /  6.5 °C 30in /  1016.3hPa SW 0.1mph /  0.2km/h 3.1mph /  5km/h 99.9% 0in /  0.0mm 0 W/m2
02:34 43.7 °F /  6.5 °C 43.7 °F /  6.5 °C 30in /  1016.3hPa South 1.1mph /  1.8km/h 3.6mph /  5.8km/h 100% 0in /  0.0mm 0 W/m2
02:39 43.7 °F /  6.5 °C 43.5 °F /  6.4 °C 30in /  1016.3hPa WSW 0.9mph /  1.4km/h 3.6mph /  5.8km/h 99.2% 0in /  0.0mm 0 W/m2
02:44 43.7 °F /  6.5 °C 43.3 °F /  6.3 °C 30in /  1016.3hPa South 1.1mph /  1.8km/h 3.6mph /  5.8km/h 98.2% 0in /  0.0mm 0 W/m2
02:49 43.9 °F /  6.6 °C 43.7 °F /  6.5 °C 30in /  1016.3hPa West 0.2mph /  0.3km/h 2.7mph /  4.3km/h 99% 0in /  0.0mm 0 W/m2
02:54 43.9 °F /  6.6 °C 43.7 °F /  6.5 °C 30in /  1016.3hPa SW 0.4mph /  0.6km/h 2.9mph /  4.7km/h 99.2% 0in /  0.0mm 0 W/m2
02:59 43.7 °F /  6.5 °C 43.5 °F /  6.4 °C 30in /  1016.3hPa South 0.5mph /  0.8km/h 2.9mph /  4.7km/h 99.4% 0in /  0.0mm 0 W/m2
03:04 43.7 °F /  6.5 °C 43.7 °F /  6.5 °C 30in /  1016.3hPa SSE 0.4mph /  0.6km/h 2.2mph /  3.5km/h 99.7% 0in /  0.0mm 0 W/m2
03:09 43.7 °F /  6.5 °C 43.7 °F /  6.5 °C 30in /  1016.3hPa Calm   2mph /  3.2km/h 100% 0in /  0.0mm 0 W/m2
03:14 43.7 °F /  6.5 °C 43.5 °F /  6.4 °C 30in /  1015.9hPa Calm     99.5% 0in /  0.0mm 0 W/m2
03:19 43.7 °F /  6.5 °C 43.5 °F /  6.4 °C 30in /  1015.9hPa North 1.5mph /  2.4km/h 3.4mph /  5.5km/h 99.3% 0in /  0.0mm 0 W/m2
03:24 43.7 °F /  6.5 °C 43.5 °F /  6.4 °C 30in /  1015.9hPa NE 0.5mph /  0.8km/h 3.4mph /  5.5km/h 99.1% 0in /  0.0mm 0 W/m2
03:27 43.7 °F /  6.5 °C 43.5 °F /  6.4 °C 30in /  1015.9hPa Calm   1.8mph /  2.9km/h 99% 0in /  0.0mm 0 W/m2
05:09 44.2 °F /  6.8 °C 43 °F /  6.1 °C 30in /  1014.9hPa North 2.7mph /  4.3km/h 3.1mph /  5km/h 95% 0in /  0.0mm 0 W/m2
05:14 44.2 °F /  6.8 °C 43 °F /  6.1 °C 30in /  1014.9hPa North 0.7mph /  1.1km/h 3.4mph /  5.5km/h 95% 0in /  0.0mm 0 W/m2
05:19 44.2 °F /  6.8 °C 43 °F /  6.1 °C 30in /  1014.9hPa NNW 0.9mph /  1.4km/h 2.7mph /  4.3km/h 95% 0in /  0.0mm 0 W/m2
05:24 44.2 °F /  6.8 °C 43 °F /  6.1 °C 30in /  1014.9hPa North 2.2mph /  3.6km/h 5.1mph /  8.2km/h 95.1% 0in /  0.0mm 0 W/m2
05:29 44.2 °F /  6.8 °C 42.8 °F /  6 °C 30in /  1014.9hPa NNE 0.5mph /  0.8km/h 5.1mph /  8.2km/h 94.6% 0in /  0.0mm 0 W/m2
05:34 44.2 °F /  6.8 °C 42.6 °F /  5.9 °C 30in /  1014.9hPa NE 2.1mph /  3.4km/h 4mph /  6.4km/h 93.8% 0in /  0.0mm 0 W/m2
05:39 44.2 °F /  6.8 °C 42.8 °F /  6 °C 30in /  1014.9hPa NW 2mph /  3.2km/h 3.6mph /  5.8km/h 94.7% 0in /  0.0mm 0 W/m2
05:44 44.2 °F /  6.8 °C 43.2 °F /  6.2 °C 30in /  1014.6hPa NNW 0.9mph /  1.5km/h 3.1mph /  5km/h 96% 0in /  0.0mm 0 W/m2
05:49 44.1 °F /  6.7 °C 43.2 °F /  6.2 °C 30in /  1014.6hPa South 1.1mph /  1.8km/h 3.6mph /  5.8km/h 96.2% 0in /  0.0mm 0 W/m2
05:54 44.1 °F /  6.7 °C 43 °F /  6.1 °C 30in /  1014.6hPa Calm   2.5mph /  4km/h 95.5% 0in /  0.0mm 0 W/m2
05:59 44.1 °F /  6.7 °C 43 °F /  6.1 °C 30in /  1014.6hPa Calm     95.8% 0in /  0.0mm 0 W/m2
06:04 44.1 °F /  6.7 °C 42.8 °F /  6 °C 30in /  1014.6hPa NNW 1.6mph /  2.5km/h 3.1mph /  5km/h 95.1% 0in /  0.0mm 0 W/m2
06:09 44.2 °F /  6.8 °C 43 °F /  6.1 °C 30in /  1014.6hPa NNW 3mph /  4.8km/h 5.4mph /  8.7km/h 94.9% 0in /  0.0mm 0 W/m2
06:14 44.2 °F /  6.8 °C 43 °F /  6.1 °C 30in /  1014.6hPa NNW 3mph /  4.9km/h 5.1mph /  8.2km/h 95.3% 0in /  0.0mm 0 W/m2
06:19 44.2 °F /  6.8 °C 43 °F /  6.1 °C 30in /  1014.6hPa NNE 1.4mph /  2.3km/h 4.5mph /  7.2km/h 94.8% 0in /  0.0mm 0 W/m2
06:24 44.2 °F /  6.8 °C 42.3 °F /  5.7 °C 30in /  1014.6hPa NE 1.3mph /  2.1km/h 2.7mph /  4.3km/h 92.9% 0in /  0.0mm 0 W/m2
06:29 44.2 °F /  6.8 °C 42.6 °F /  5.9 °C 30in /  1014.6hPa NW 1.7mph /  2.8km/h 5.6mph /  9km/h 93.9% 0in /  0.0mm 0 W/m2
06:34 44.2 °F /  6.8 °C 42.8 °F /  6 °C 30in /  1014.6hPa NNW 1.1mph /  1.8km/h 3.6mph /  5.8km/h 94.5% 0.2in /  5.1mm 0 W/m2
06:39 44.2 °F /  6.8 °C 42.8 °F /  6 °C 30in /  1014.6hPa North 3mph /  4.9km/h 6.7mph /  10.8km/h 94.4% 0.31in /  7.9mm 0 W/m2
06:44 44.2 °F /  6.8 °C 42.8 °F /  6 °C 30in /  1014.6hPa North 2.6mph /  4.2km/h 7.2mph /  11.6km/h 94.4% 0.16in /  4.1mm 0 W/m2
06:49 44.4 °F /  6.9 °C 42.4 °F /  5.8 °C 30in /  1014.9hPa NNE 2.7mph /  4.3km/h 7.2mph /  11.6km/h 92.9% 0.18in /  4.6mm 0 W/m2
06:54 44.2 °F /  6.8 °C 43 °F /  6.1 °C 30in /  1014.6hPa NNW 2.5mph /  4.1km/h 4.9mph /  7.9km/h 95% 0.09in /  2.3mm 0 W/m2
06:59 44.2 °F /  6.8 °C 43.2 °F /  6.2 °C 30in /  1014.9hPa NNE 2.2mph /  3.6km/h 4.7mph /  7.6km/h 96.1% 0.1in /  2.5mm 0 W/m2
07:04 43.9 °F /  6.6 °C 43.2 °F /  6.2 °C 30in /  1014.9hPa NNW 1.4mph /  2.2km/h 4.7mph /  7.6km/h 97.1% 0.14in /  3.6mm 0 W/m2
07:09 43.9 °F /  6.6 °C 43.2 °F /  6.2 °C 30in /  1014.9hPa NNW 1.6mph /  2.6km/h 3.8mph /  6.1km/h 97% 0.11in /  2.8mm 0 W/m2
07:14 43.9 °F /  6.6 °C 43 °F /  6.1 °C 30in /  1014.9hPa NW 1.7mph /  2.7km/h 3.8mph /  6.1km/h 96.2% 0.04in /  1.0mm 0 W/m2
07:19 43.9 °F /  6.6 °C 42.6 °F /  5.9 °C 30in /  1014.6hPa NNW 0.1mph /  0.2km/h 3.8mph /  6.1km/h 95.2% 0.04in /  1.0mm 0 W/m2
07:24 44.1 °F /  6.7 °C 43 °F /  6.1 °C 30in /  1014.9hPa NE 1.2mph /  2km/h 3.8mph /  6.1km/h 95.7% 0.01in /  0.2mm 0 W/m2
07:29 43.9 °F /  6.6 °C 42.8 °F /  6 °C 30in /  1014.9hPa NW 3.1mph /  5km/h 4.7mph /  7.6km/h 95.6% 0.04in /  1.0mm 0 W/m2
07:34 44.1 °F /  6.7 °C 42.8 °F /  6 °C 30in /  1014.6hPa SSE 0.7mph /  1.2km/h 4mph /  6.4km/h 95.6% 0.04in /  1.0mm 0 W/m2
07:39 44.1 °F /  6.7 °C 42.8 °F /  6 °C 30in /  1014.6hPa NNW 2.7mph /  4.4km/h 5.6mph /  9km/h 95% 0.04in /  1.0mm 0 W/m2
07:44 44.1 °F /  6.7 °C 43.2 °F /  6.2 °C 30in /  1014.6hPa North 3.9mph /  6.3km/h 7.8mph /  12.6km/h 96.4% 0.03in /  0.8mm 0 W/m2
07:49 44.1 °F /  6.7 °C 42.8 °F /  6 °C 30in /  1014.6hPa NNE 2.7mph /  4.4km/h 7.8mph /  12.6km/h 95.2% 0.02in /  0.5mm 0 W/m2
07:54 44.1 °F /  6.7 °C 42.4 °F /  5.8 °C 30in /  1014.9hPa North 2.4mph /  3.8km/h 5.8mph /  9.3km/h 94.2% 0.02in /  0.5mm 0 W/m2
07:59 44.1 °F /  6.7 °C 42.8 °F /  6 °C 30in /  1014.9hPa NW 1.1mph /  1.8km/h 3.8mph /  6.1km/h 94.8% 0.01in /  0.2mm 0 W/m2
08:04 44.1 °F /  6.7 °C 43 °F /  6.1 °C 30in /  1014.9hPa ENE 1.4mph /  2.2km/h 3.6mph /  5.8km/h 95.6% 0.01in /  0.2mm 0 W/m2
08:09 44.1 °F /  6.7 °C 43.2 °F /  6.2 °C 30in /  1014.9hPa North 2.3mph /  3.7km/h 3.4mph /  5.5km/h 96.4% 0in /  0.0mm 0 W/m2
08:14 44.1 °F /  6.7 °C 43 °F /  6.1 °C 30in /  1014.9hPa NNW 2.6mph /  4.2km/h 4.5mph /  7.2km/h 95.8% 0in /  0.0mm 2 W/m2
08:19 44.1 °F /  6.7 °C 43.3 °F /  6.3 °C 30in /  1014.6hPa North 0.9mph /  1.5km/h 3.8mph /  6.1km/h 97% 0.01in /  0.2mm 2 W/m2
08:24 44.1 °F /  6.7 °C 43.3 °F /  6.3 °C 30in /  1014.9hPa Calm   2mph /  3.2km/h 97% 0.01in /  0.2mm 2 W/m2
08:29 44.1 °F /  6.7 °C 43.3 °F /  6.3 °C 30in /  1014.9hPa North 1.6mph /  2.5km/h 2.7mph /  4.3km/h 97.2% 0.43in /  10.9mm 3 W/m2
08:34 44.1 °F /  6.7 °C 43.3 °F /  6.3 °C 30in /  1014.9hPa North 2.3mph /  3.7km/h 4.3mph /  6.9km/h 97.2% 0.43in /  10.9mm 3 W/m2
08:39 44.1 °F /  6.7 °C 43.5 °F /  6.4 °C 30in /  1014.9hPa North 2.5mph /  4km/h 4.3mph /  6.9km/h 97.8% 0.3in /  7.6mm 3 W/m2
08:44 44.1 °F /  6.7 °C 43.5 °F /  6.4 °C 30in /  1014.9hPa North 2.1mph /  3.3km/h 4.9mph /  7.9km/h 97.7% 0.25in /  6.3mm 3 W/m2
08:49 44.1 °F /  6.7 °C 43.7 °F /  6.5 °C 30in /  1014.9hPa NE 3.8mph /  6.1km/h 5.6mph /  9km/h 98.6% 0.2in /  5.1mm 3 W/m2
08:54 43.5 °F /  6.4 °C 43.5 °F /  6.4 °C 30in /  1014.9hPa North 3.1mph /  5km/h 6.7mph /  10.8km/h 99.6% 0.25in /  6.3mm 3 W/m2
08:59 43.2 °F /  6.2 °C 43.2 °F /  6.2 °C 30in /  1014.9hPa NNE 2mph /  3.2km/h 5.1mph /  8.2km/h 100% 0.25in /  6.3mm 4 W/m2
09:04 43.2 °F /  6.2 °C 43.2 °F /  6.2 °C 30in /  1014.9hPa NNW 1.8mph /  2.9km/h 4.7mph /  7.6km/h 99.9% 0.39in /  9.9mm 5 W/m2
10:44 44.1 °F /  6.7 °C 44.1 °F /  6.7 °C 30in /  1014.6hPa Calm     100% 0.23in /  5.8mm 8 W/m2
10:49 44.1 °F /  6.7 °C 44.1 °F /  6.7 °C 30in /  1014.6hPa NNE 1.1mph /  1.8km/h 3.8mph /  6.1km/h 100% 0.25in /  6.3mm 8 W/m2
10:54 44.1 °F /  6.7 °C 44.1 °F /  6.7 °C 30in /  1014.6hPa NE 2mph /  3.2km/h 5.4mph /  8.7km/h 100% 0.25in /  6.3mm 10 W/m2
10:59 43.9 °F /  6.6 °C 43.9 °F /  6.6 °C 30in /  1014.6hPa West 2.6mph /  4.2km/h 8.9mph /  14.3km/h 99.9% 0.31in /  7.9mm 18 W/m2
11:04 44.4 °F /  6.9 °C 43.5 °F /  6.4 °C 30in /  1014.6hPa SW 3.5mph /  5.6km/h 8.9mph /  14.3km/h 96.6% 0.53in /  13.5mm 18 W/m2
11:09 45.1 °F /  7.3 °C 43.7 °F /  6.5 °C 30in /  1014.6hPa SSW 2.2mph /  3.6km/h 6.7mph /  10.8km/h 94.2% 0.36in /  9.1mm 16 W/m2
11:14 45.3 °F /  7.4 °C 44.4 °F /  6.9 °C 30in /  1014.6hPa NW 1.3mph /  2.1km/h 3.8mph /  6.1km/h 96.6% 0.2in /  5.1mm 15 W/m2
11:19 45.3 °F /  7.4 °C 44.6 °F /  7 °C 30in /  1014.6hPa NNE 1.4mph /  2.2km/h 3.8mph /  6.1km/h 97% 0.11in /  2.8mm 11 W/m2
11:24 45.3 °F /  7.4 °C 44.6 °F /  7 °C 30in /  1014.6hPa ENE 1.6mph /  2.5km/h 3.8mph /  6.1km/h 97.5% 0.11in /  2.8mm 14 W/m2
11:29 45.1 °F /  7.3 °C 44.6 °F /  7 °C 30in /  1014.6hPa NNW 3mph /  4.9km/h 4.7mph /  7.6km/h 97.8% 0.01in /  0.2mm 14 W/m2
11:34 45.1 °F /  7.3 °C 44.6 °F /  7 °C 30in /  1014.2hPa NNW 1.2mph /  2km/h 4.7mph /  7.6km/h 97.7% 0.01in /  0.2mm 12 W/m2
11:39 45.3 °F /  7.4 °C 44.6 °F /  7 °C 30in /  1014.2hPa NW 1.9mph /  3km/h 3.8mph /  6.1km/h 97% 0.39in /  9.9mm 12 W/m2
11:44 45.5 °F /  7.5 °C 44.4 °F /  6.9 °C 30in /  1014.2hPa ESE 1.1mph /  1.8km/h 4.9mph /  7.9km/h 96.3% 0.74in /  18.8mm 13 W/m2
11:49 45.5 °F /  7.5 °C 44.4 °F /  6.9 °C 30in /  1014.2hPa SSW 1.2mph /  1.9km/h 4.9mph /  7.9km/h 96.1% 0.74in /  18.8mm 18 W/m2
11:54 45.5 °F /  7.5 °C 44.8 °F /  7.1 °C 29.9in /  1013.9hPa SE 0.2mph /  0.4km/h 3.4mph /  5.5km/h 97% 0.76in /  19.3mm 20 W/m2
11:59 45.3 °F /  7.4 °C 44.6 °F /  7 °C 29.9in /  1013.9hPa NW 2.5mph /  4.1km/h 4.9mph /  7.9km/h 96.9% 0.47in /  11.9mm 22 W/m2
12:04 45.5 °F /  7.5 °C 44.4 °F /  6.9 °C 29.9in /  1013.9hPa ENE 1.2mph /  1.9km/h 4.9mph /  7.9km/h 96.3% 0.33in /  8.4mm 14 W/m2
12:09 45.3 °F /  7.4 °C 44.6 °F /  7 °C 29.9in /  1013.9hPa West 1.7mph /  2.7km/h 4.3mph /  6.9km/h 97.2% 0.19in /  4.8mm 12 W/m2
12:14 45.5 °F /  7.5 °C 44.6 °F /  7 °C 29.9in /  1013.9hPa Calm   4.3mph /  6.9km/h 96.8% 0.02in /  0.5mm 11 W/m2
12:19 45.5 °F /  7.5 °C 44.6 °F /  7 °C 29.9in /  1013.9hPa WNW 2.3mph /  3.7km/h 4.5mph /  7.2km/h 96.5% 0in /  0.0mm 8 W/m2
12:24 45.7 °F /  7.6 °C 44.6 °F /  7 °C 29.9in /  1013.5hPa NW 1.8mph /  2.9km/h 4mph /  6.4km/h 95.8% 0.02in /  0.5mm 7 W/m2
12:29 45.9 °F /  7.7 °C 44.8 °F /  7.1 °C 29.9in /  1013.5hPa WNW 1.1mph /  1.7km/h 3.8mph /  6.1km/h 96% 0.02in /  0.5mm 8 W/m2
12:34 45.9 °F /  7.7 °C 44.8 °F /  7.1 °C 29.9in /  1013.5hPa WNW 0.4mph /  0.6km/h 3.8mph /  6.1km/h 95.6% 0.02in /  0.5mm 10 W/m2
12:39 46 °F /  7.8 °C 45.1 °F /  7.3 °C 29.9in /  1013.5hPa North 1.9mph /  3.1km/h 4.5mph /  7.2km/h 96.4% 0.09in /  2.3mm 11 W/m2
12:44 45.7 °F /  7.6 °C 45.3 °F /  7.4 °C 29.9in /  1013.5hPa North 3mph /  4.9km/h 5.1mph /  8.2km/h 98.5% 0.09in /  2.3mm 13 W/m2
12:49 45.5 °F /  7.5 °C 45.1 °F /  7.3 °C 29.9in /  1013.5hPa North 0.7mph /  1.1km/h 4.3mph /  6.9km/h 98.6% 0.07in /  1.8mm 10 W/m2
12:54 45.3 °F /  7.4 °C 45.1 °F /  7.3 °C 29.9in /  1013.5hPa NW 0.5mph /  0.8km/h 2.5mph /  4km/h 98.9% 0.05in /  1.3mm 11 W/m2
12:59 45.3 °F /  7.4 °C 45 °F /  7.2 °C 29.9in /  1013.5hPa WSW 1.1mph /  1.8km/h 6.7mph /  10.8km/h 98.3% 0.04in /  1.0mm 12 W/m2
13:04 45.7 °F /  7.6 °C 44.8 °F /  7.1 °C 29.9in /  1013.5hPa NE 1.1mph /  1.7km/h 6.7mph /  10.8km/h 96.7% 0.82in /  20.8mm 9 W/m2
13:09 45.7 °F /  7.6 °C 45.3 °F /  7.4 °C 29.9in /  1013.2hPa NW 1.1mph /  1.7km/h 2.5mph /  4km/h 98.4% 0.02in /  0.5mm 10 W/m2
13:14 45.7 °F /  7.6 °C 45.3 °F /  7.4 °C 29.9in /  1013.2hPa North 2.1mph /  3.4km/h 4.9mph /  7.9km/h 98.4% 0.02in /  0.5mm 8 W/m2
13:19 45.7 °F /  7.6 °C 45.1 °F /  7.3 °C 29.9in /  1013.2hPa NNW 2.1mph /  3.4km/h 4.9mph /  7.9km/h 97.8% 0.03in /  0.8mm 12 W/m2
13:24 45.7 °F /  7.6 °C 45.1 °F /  7.3 °C 29.9in /  1013.2hPa NNW 1.9mph /  3.1km/h 4.5mph /  7.2km/h 98.2% 0.03in /  0.8mm 10 W/m2
13:29 45.9 °F /  7.7 °C 45.1 °F /  7.3 °C 29.9in /  1013.2hPa NNW 1.6mph /  2.5km/h 4.5mph /  7.2km/h 97.3% 0in /  0.0mm 7 W/m2
13:34 45.9 °F /  7.7 °C 45.1 °F /  7.3 °C 29.9in /  1013.2hPa NW 2.3mph /  3.7km/h 4.7mph /  7.6km/h 97.1% 0in /  0.0mm 7 W/m2
13:39 46 °F /  7.8 °C 45 °F /  7.2 °C 29.9in /  1013.2hPa NW 1.4mph /  2.2km/h 5.6mph /  9km/h 96.2% 0.04in /  1.0mm 7 W/m2
13:44 46.2 °F /  7.9 °C 45.1 °F /  7.3 °C 29.9in /  1013.2hPa NW 1.6mph /  2.6km/h 4.3mph /  6.9km/h 96.3% 0.03in /  0.8mm 8 W/m2
13:49 46.2 °F /  7.9 °C 45 °F /  7.2 °C 29.9in /  1012.9hPa NW 0.9mph /  1.4km/h 4.3mph /  6.9km/h 95.5% 0.16in /  4.1mm 8 W/m2
13:54 46.4 °F /  8 °C 45.1 °F /  7.3 °C 29.9in /  1012.9hPa NE 2.1mph /  3.4km/h 4.9mph /  7.9km/h 95% 0.13in /  3.3mm 8 W/m2
13:59 46.6 °F /  8.1 °C 45.3 °F /  7.4 °C 29.9in /  1012.9hPa NNE 1.5mph /  2.4km/h 5.4mph /  8.7km/h 95.4% 0.01in /  0.2mm 9 W/m2
14:04 46.6 °F /  8.1 °C 45.3 °F /  7.4 °C 29.9in /  1012.9hPa North 1.6mph /  2.5km/h 4.5mph /  7.2km/h 95.7% 0.02in /  0.5mm 9 W/m2
14:09 46.6 °F /  8.1 °C 45.3 °F /  7.4 °C 29.9in /  1012.9hPa NW 1.5mph /  2.4km/h 3.1mph /  5km/h 95.5% 0.04in /  1.0mm 9 W/m2
14:14 46.8 °F /  8.2 °C 45.5 °F /  7.5 °C 29.9in /  1012.9hPa NNW 2mph /  3.2km/h 3.1mph /  5km/h 95.6% 0.08in /  2.0mm 8 W/m2
14:19 46.8 °F /  8.2 °C 45.5 °F /  7.5 °C 29.9in /  1013.2hPa SSW 1.2mph /  1.9km/h 3.8mph /  6.1km/h 95.6% 0.2in /  5.1mm 6 W/m2
14:24 46.8 °F /  8.2 °C 45.1 °F /  7.3 °C 29.9in /  1013.2hPa NW 1.7mph /  2.8km/h 4.7mph /  7.6km/h 94.6% 0.35in /  8.9mm 5 W/m2
14:29 46.9 °F /  8.3 °C 45.3 °F /  7.4 °C 29.9in /  1012.9hPa West 1.7mph /  2.7km/h 4.7mph /  7.6km/h 93.9% 0.18in /  4.6mm 5 W/m2
14:34 47.1 °F /  8.4 °C 45.1 °F /  7.3 °C 29.9in /  1012.9hPa NE 2.3mph /  3.7km/h 7.6mph /  12.2km/h 92.8% 0.1in /  2.5mm 5 W/m2
14:39 46.9 °F /  8.3 °C 46.2 °F /  7.9 °C 29.9in /  1012.9hPa NW 1.7mph /  2.8km/h 7.6mph /  12.2km/h 97.2% 0.07in /  1.8mm 5 W/m2
14:44 46.8 °F /  8.2 °C 46 °F /  7.8 °C 29.9in /  1012.9hPa NNW 1.6mph /  2.6km/h 2.7mph /  4.3km/h 97.8% 0.12in /  3.0mm 5 W/m2
14:49 46.6 °F /  8.1 °C 45.9 °F /  7.7 °C 29.9in /  1012.9hPa SW 1.5mph /  2.4km/h 7.2mph /  11.6km/h 97.3% 0.36in /  9.1mm 5 W/m2
14:54 46.8 °F /  8.2 °C 45.5 °F /  7.5 °C 29.9in /  1012.9hPa SSW 1.4mph /  2.3km/h 7.2mph /  11.6km/h 95.6% 0.36in /  9.1mm 8 W/m2
14:59 46.9 °F /  8.3 °C 45.7 °F /  7.6 °C 29.9in /  1012.9hPa NE 1.3mph /  2.1km/h 4.5mph /  7.2km/h 95.7% 0.26in /  6.6mm 6 W/m2
15:04 46.9 °F /  8.3 °C 45.7 °F /  7.6 °C 29.9in /  1012.9hPa NE 0.2mph /  0.3km/h 3.6mph /  5.8km/h 95.5% 0.2in /  5.1mm 5 W/m2
15:09 47.1 °F /  8.4 °C 45.7 °F /  7.6 °C 29.9in /  1012.9hPa SW 1.1mph /  1.7km/h 4.5mph /  7.2km/h 95.2% 0.24in /  6.1mm 5 W/m2
15:14 47.1 °F /  8.4 °C 46 °F /  7.8 °C 29.9in /  1012.9hPa West 0.4mph /  0.6km/h 3.1mph /  5km/h 96% 0.61in /  15.5mm 6 W/m2
15:19 46.9 °F /  8.3 °C 46 °F /  7.8 °C 29.9in /  1012.9hPa SSW 1.5mph /  2.4km/h 4.9mph /  7.9km/h 96.2% 0.61in /  15.5mm 7 W/m2
15:24 47.1 °F /  8.4 °C 46 °F /  7.8 °C 29.9in /  1012.9hPa WNW 1.1mph /  1.7km/h 4.7mph /  7.6km/h 96% 0.47in /  11.9mm 8 W/m2
15:29 46.9 °F /  8.3 °C 46 °F /  7.8 °C 29.9in /  1012.9hPa NNW 1.2mph /  2km/h 3.1mph /  5km/h 96.4% 0.44in /  11.2mm 5 W/m2
15:34 47.1 °F /  8.4 °C 46 °F /  7.8 °C 29.9in /  1012.9hPa West 0.8mph /  1.3km/h 3.6mph /  5.8km/h 96% 0.49in /  12.4mm 3 W/m2
15:39 47.1 °F /  8.4 °C 45.9 °F /  7.7 °C 29.9in /  1012.9hPa SW 2.8mph /  4.5km/h 4.5mph /  7.2km/h 95.6% 0.71in /  18.0mm 6 W/m2
15:44 47.3 °F /  8.5 °C 45.9 °F /  7.7 °C 29.9in /  1012.9hPa SSW 1.9mph /  3.1km/h 5.8mph /  9.3km/h 94.9% 0.61in /  15.5mm 6 W/m2
15:49 47.5 °F /  8.6 °C 46 °F /  7.8 °C 29.9in /  1012.9hPa ESE 1mph /  1.6km/h 5.8mph /  9.3km/h 94.9% 1.21in /  30.7mm 6 W/m2
15:54 47.5 °F /  8.6 °C 46.6 °F /  8.1 °C 29.9in /  1012.9hPa South 1.5mph /  2.4km/h 4.7mph /  7.6km/h 96.5% 1.21in /  30.7mm 12 W/m2
15:59 47.5 °F /  8.6 °C 46.2 °F /  7.9 °C 29.9in /  1013.2hPa South 2.2mph /  3.6km/h 8.7mph /  14km/h 95.8% 1.06in /  26.9mm 12 W/m2
16:04 47.7 °F /  8.7 °C 46.6 °F /  8.1 °C 29.9in /  1013.2hPa SW 1.4mph /  2.3km/h 4.3mph /  6.9km/h 95.9% 0.83in /  21.1mm 10 W/m2
16:09 47.7 °F /  8.7 °C 46.4 °F /  8 °C 29.9in /  1013.2hPa WSW 1.1mph /  1.7km/h 3.1mph /  5km/h 95.6% 0.77in /  19.6mm 7 W/m2
16:14 47.7 °F /  8.7 °C 46.8 °F /  8.2 °C 29.9in /  1013.2hPa SW 0.8mph /  1.3km/h 2.9mph /  4.7km/h 96.7% 0.78in /  19.8mm 10 W/m2
16:19 47.5 °F /  8.6 °C 46.6 °F /  8.1 °C 29.9in /  1013.2hPa WNW 0.2mph /  0.3km/h 2mph /  3.2km/h 96.7% 0.43in /  10.9mm 10 W/m2
16:24 47.5 °F /  8.6 °C 46.9 °F /  8.3 °C 29.9in /  1013.2hPa West 1.2mph /  2km/h 3.1mph /  5km/h 97.6% 0.13in /  3.3mm 5 W/m2
16:29 47.5 °F /  8.6 °C 46.6 °F /  8.1 °C 29.9in /  1013.2hPa West 1mph /  1.6km/h 3.1mph /  5km/h 96.8% 0.2in /  5.1mm 4 W/m2
16:34 47.5 °F /  8.6 °C 46.4 °F /  8 °C 29.9in /  1013.2hPa NW 1.4mph /  2.2km/h 2.7mph /  4.3km/h 96.1% 0.35in /  8.9mm 4 W/m2
16:39 47.7 °F /  8.7 °C 46.4 °F /  8 °C 29.9in /  1013.2hPa WNW 1mph /  1.6km/h 3.6mph /  5.8km/h 95.5% 0.26in /  6.6mm 3 W/m2
16:44 47.8 °F /  8.8 °C 46.4 °F /  8 °C 29.9in /  1013.2hPa NW 2.1mph /  3.3km/h 4.9mph /  7.9km/h 95.2% 0.19in /  4.8mm 2 W/m2
16:49 48 °F /  8.9 °C 46.4 °F /  8 °C 29.9in /  1013.2hPa WNW 0.9mph /  1.4km/h 4mph /  6.4km/h 94.4% 0.16in /  4.1mm 2 W/m2
16:54 48.2 °F /  9 °C 46.8 °F /  8.2 °C 29.9in /  1013.2hPa West 1.1mph /  1.7km/h 3.8mph /  6.1km/h 94.7% 0.04in /  1.0mm 0 W/m2
16:59 48.2 °F /  9 °C 46.6 °F /  8.1 °C 29.9in /  1013.2hPa WNW 0.9mph /  1.4km/h 4.9mph /  7.9km/h 94.1% 0.22in /  5.6mm 0 W/m2
17:04 48.2 °F /  9 °C 46.9 °F /  8.3 °C 29.9in /  1013.2hPa NNW 0.9mph /  1.5km/h 2.9mph /  4.7km/h 95.3% 0.04in /  1.0mm 0 W/m2
17:09 48.2 °F /  9 °C 47.1 °F /  8.4 °C 29.9in /  1013.2hPa West 0.4mph /  0.7km/h 2.9mph /  4.7km/h 96% 0in /  0.0mm 0 W/m2
17:14 48.2 °F /  9 °C 46.9 °F /  8.3 °C 29.9in /  1013.2hPa WNW 1.1mph /  1.7km/h 3.8mph /  6.1km/h 95.3% 0in /  0.0mm 0 W/m2
17:19 48.4 °F /  9.1 °C 46.9 °F /  8.3 °C 29.9in /  1013.2hPa South 0.9mph /  1.4km/h 4.3mph /  6.9km/h 95.1% 0in /  0.0mm 0 W/m2
17:24 48.4 °F /  9.1 °C 46.9 °F /  8.3 °C 29.9in /  1013.2hPa NW 1.2mph /  1.9km/h 3.6mph /  5.8km/h 94.8% 0in /  0.0mm 0 W/m2
17:29 48.4 °F /  9.1 °C 46.9 °F /  8.3 °C 29.9in /  1013.2hPa NW 1.1mph /  1.8km/h 3.6mph /  5.8km/h 95.1% 0in /  0.0mm 0 W/m2
17:34 48.6 °F /  9.2 °C 46.9 °F /  8.3 °C 29.9in /  1013.2hPa NNW 2.5mph /  4.1km/h 4.3mph /  6.9km/h 94.1% 0in /  0.0mm 0 W/m2
17:39 48.6 °F /  9.2 °C 47.3 °F /  8.5 °C 29.9in /  1013.2hPa NNW 2.6mph /  4.2km/h 4.3mph /  6.9km/h 95.8% 0in /  0.0mm 0 W/m2
17:44 48.2 °F /  9 °C 47.3 °F /  8.5 °C 29.9in /  1013.2hPa WNW 1.7mph /  2.7km/h 4.3mph /  6.9km/h 97% 0in /  0.0mm 0 W/m2
17:49 48.2 °F /  9 °C 47.1 °F /  8.4 °C 29.9in /  1013.2hPa WSW 0.9mph /  1.5km/h 3.1mph /  5km/h 96.5% 0in /  0.0mm 0 W/m2
17:54 48.2 °F /  9 °C 47.1 °F /  8.4 °C 29.9in /  1013.5hPa East 0.8mph /  1.3km/h 3.6mph /  5.8km/h 96.2% 0in /  0.0mm 0 W/m2
17:59 48.2 °F /  9 °C 47.3 °F /  8.5 °C 29.9in /  1013.5hPa NW 1.1mph /  1.7km/h 2.2mph /  3.5km/h 97.1% 0in /  0.0mm 0 W/m2
18:04 48 °F /  8.9 °C 47.3 °F /  8.5 °C 29.9in /  1013.5hPa WNW 0.5mph /  0.8km/h 2.2mph /  3.5km/h 97.4% 0in /  0.0mm 0 W/m2
18:09 48 °F /  8.9 °C 47.1 °F /  8.4 °C 29.9in /  1013.5hPa NNE 0.3mph /  0.5km/h 3.1mph /  5km/h 96.6% 0in /  0.0mm 0 W/m2
18:14 48.2 °F /  9 °C 47.1 °F /  8.4 °C 29.9in /  1013.5hPa NNW 0.4mph /  0.6km/h 3.1mph /  5km/h 96% 0in /  0.0mm 0 W/m2
18:19 48.4 °F /  9.1 °C 47.3 °F /  8.5 °C 29.9in /  1013.5hPa NW 0.6mph /  1km/h 2.9mph /  4.7km/h 95.8% 0in /  0.0mm 0 W/m2
18:24 48.6 °F /  9.2 °C 47.1 °F /  8.4 °C 29.9in /  1013.5hPa WSW 0.8mph /  1.3km/h 3.1mph /  5km/h 95.1% 0in /  0.0mm 0 W/m2
18:29 48.6 °F /  9.2 °C 47.7 °F /  8.7 °C 29.9in /  1013.9hPa NW 0.4mph /  0.6km/h 2.7mph /  4.3km/h 97.2% 0in /  0.0mm 0 W/m2
18:34 48.2 °F /  9 °C 47.7 °F /  8.7 °C 29.9in /  1013.9hPa NW 1.7mph /  2.8km/h 3.1mph /  5km/h 98% 0in /  0.0mm 0 W/m2
18:39 48.2 °F /  9 °C 47.5 °F /  8.6 °C 29.9in /  1013.9hPa West 1mph /  1.6km/h 3.1mph /  5km/h 97% 0in /  0.0mm 0 W/m2
18:44 48.6 °F /  9.2 °C 47.5 °F /  8.6 °C 29.9in /  1013.9hPa West 0.2mph /  0.3km/h 2.9mph /  4.7km/h 96% 0in /  0.0mm 0 W/m2
18:49 48.7 °F /  9.3 °C 47.7 °F /  8.7 °C 30in /  1014.2hPa Calm   1.8mph /  2.9km/h 96% 0in /  0.0mm 0 W/m2
18:54 48.7 °F /  9.3 °C 47.8 °F /  8.8 °C 30in /  1014.2hPa NW 0.1mph /  0.1km/h 2.9mph /  4.7km/h 96.8% 0in /  0.0mm 0 W/m2
18:59 48.7 °F /  9.3 °C 47.7 °F /  8.7 °C 30in /  1014.2hPa Calm   2.9mph /  4.7km/h 96% 0in /  0.0mm 0 W/m2
19:04 48.7 °F /  9.3 °C 47.8 °F /  8.8 °C 30in /  1014.2hPa NNE 0.7mph /  1.2km/h 2.7mph /  4.3km/h 96.6% 0in /  0.0mm 0 W/m2
19:09 48.7 °F /  9.3 °C 48.2 °F /  9 °C 30in /  1014.2hPa NNW 1.3mph /  2.1km/h 2.7mph /  4.3km/h 98% 0in /  0.0mm 0 W/m2
19:14 48.6 °F /  9.2 °C 47.7 °F /  8.7 °C 30in /  1014.2hPa NW 0.9mph /  1.5km/h 2.9mph /  4.7km/h 97% 0in /  0.0mm 0 W/m2
19:19 48.6 °F /  9.2 °C 47.7 °F /  8.7 °C 30in /  1014.2hPa NW 1.4mph /  2.2km/h 2.9mph /  4.7km/h 97% 0in /  0.0mm 0 W/m2
19:24 48.6 °F /  9.2 °C 48 °F /  8.9 °C 30in /  1014.2hPa NNW 0.9mph /  1.5km/h 2.2mph /  3.5km/h 97.8% 0in /  0.0mm 0 W/m2
19:29 48.6 °F /  9.2 °C 48 °F /  8.9 °C 30in /  1014.2hPa North 1.8mph /  2.9km/h 3.1mph /  5km/h 97.8% 0in /  0.0mm 0 W/m2
19:34 48.6 °F /  9.2 °C 47.8 °F /  8.8 °C 30in /  1014.2hPa NNW 1.6mph /  2.6km/h 3.8mph /  6.1km/h 97.6% 0in /  0.0mm 0 W/m2
19:39 48.6 °F /  9.2 °C 48 °F /  8.9 °C 30in /  1014.6hPa NNW 1.1mph /  1.7km/h 2.9mph /  4.7km/h 98% 0in /  0.0mm 0 W/m2
19:44 48.7 °F /  9.3 °C 47.8 °F /  8.8 °C 30in /  1014.6hPa NNW 1.1mph /  1.8km/h 2.9mph /  4.7km/h 97% 0in /  0.0mm 0 W/m2
19:49 48.7 °F /  9.3 °C 47.8 °F /  8.8 °C 30in /  1014.6hPa Calm   2mph /  3.2km/h 97% 0in /  0.0mm 0 W/m2
19:54 48.7 °F /  9.3 °C 48 °F /  8.9 °C 30in /  1014.6hPa Calm     97.7% 0in /  0.0mm 0 W/m2
19:59 48.6 °F /  9.2 °C 48 °F /  8.9 °C 30in /  1014.6hPa Calm     98% 0in /  0.0mm 0 W/m2
20:04 48.4 °F /  9.1 °C 48 °F /  8.9 °C 30in /  1014.6hPa Calm     98.4% 0in /  0.0mm 0 W/m2
20:09 48.4 °F /  9.1 °C 48 °F /  8.9 °C 30in /  1014.6hPa Calm     98.4% 0in /  0.0mm 0 W/m2
20:14 48.4 °F /  9.1 °C 47.8 °F /  8.8 °C 30in /  1014.6hPa Calm     98% 0in /  0.0mm 0 W/m2
20:19 48.6 °F /  9.2 °C 47.8 °F /  8.8 °C 30in /  1014.6hPa NNE 0.7mph /  1.1km/h 2.2mph /  3.5km/h 97.6% 0in /  0.0mm 0 W/m2
20:24 48.6 °F /  9.2 °C 47.7 °F /  8.7 °C 30in /  1014.6hPa NNE 1.4mph /  2.2km/h 2.7mph /  4.3km/h 97.1% 0in /  0.0mm 0 W/m2
20:29 48.7 °F /  9.3 °C 47.8 °F /  8.8 °C 30in /  1014.6hPa North 1.1mph /  1.8km/h 2.2mph /  3.5km/h 97% 0in /  0.0mm 0 W/m2
20:34 48.7 °F /  9.3 °C 47.8 °F /  8.8 °C 30in /  1014.6hPa North 1.7mph /  2.7km/h 2.9mph /  4.7km/h 97% 0in /  0.0mm 0 W/m2
20:39 48.7 °F /  9.3 °C 47.8 °F /  8.8 °C 30in /  1014.6hPa NNW 1.4mph /  2.3km/h 2.9mph /  4.7km/h 97.2% 0in /  0.0mm 0 W/m2
20:44 48.7 °F /  9.3 °C 47.8 °F /  8.8 °C 30in /  1014.6hPa NNW 1.1mph /  1.7km/h 3.1mph /  5km/h 97% 0in /  0.0mm 0 W/m2
20:49 48.9 °F /  9.4 °C 48 °F /  8.9 °C 30in /  1014.6hPa NNW 0.4mph /  0.7km/h 2.7mph /  4.3km/h 97.2% 0in /  0.0mm 0 W/m2
20:54 48.9 °F /  9.4 °C 48.2 °F /  9 °C 30in /  1014.9hPa North 1.7mph /  2.7km/h 3.6mph /  5.8km/h 97.4% 0in /  0.0mm 0 W/m2
20:59 48.9 °F /  9.4 °C 48.2 °F /  9 °C 30in /  1014.9hPa North 1.1mph /  1.8km/h 3.6mph /  5.8km/h 97.6% 0in /  0.0mm 0 W/m2
21:04 48.7 °F /  9.3 °C 48.2 °F /  9 °C 30in /  1014.6hPa Calm   2.5mph /  4km/h 97.8% 0in /  0.0mm 0 W/m2
21:09 48.7 °F /  9.3 °C 48.2 °F /  9 °C 30in /  1014.9hPa NNE 0.6mph /  0.9km/h 2mph /  3.2km/h 98% 0in /  0.0mm 0 W/m2
21:14 48.6 °F /  9.2 °C 47.8 °F /  8.8 °C 30in /  1014.9hPa NNE 2.4mph /  3.9km/h 3.4mph /  5.5km/h 97.6% 0in /  0.0mm 0 W/m2
21:19 48.7 °F /  9.3 °C 47.8 °F /  8.8 °C 30in /  1014.9hPa North 1.4mph /  2.3km/h 3.1mph /  5km/h 96.8% 0in /  0.0mm 0 W/m2
21:24 48.7 °F /  9.3 °C 47.8 °F /  8.8 °C 30in /  1014.9hPa North 1.9mph /  3km/h 3.1mph /  5km/h 97% 0in /  0.0mm 0 W/m2
21:29 48.7 °F /  9.3 °C 47.8 °F /  8.8 °C 30in /  1014.9hPa North 1.7mph /  2.7km/h 3.1mph /  5km/h 97% 0in /  0.0mm 0 W/m2
21:34 48.7 °F /  9.3 °C 47.8 °F /  8.8 °C 30in /  1014.9hPa NNW 1.6mph /  2.5km/h 3.1mph /  5km/h 97.1% 0in /  0.0mm 0 W/m2
21:39 48.6 °F /  9.2 °C 47.8 °F /  8.8 °C 30in /  1014.9hPa NNW 1.4mph /  2.3km/h 3.1mph /  5km/h 98% 0in /  0.0mm 0 W/m2
21:44 48.4 °F /  9.1 °C 47.8 °F /  8.8 °C 30in /  1015.2hPa NW 1.4mph /  2.2km/h 3.6mph /  5.8km/h 98% 0in /  0.0mm 0 W/m2
21:49 48.6 °F /  9.2 °C 47.8 °F /  8.8 °C 30in /  1015.2hPa NW 1.6mph /  2.5km/h 3.6mph /  5.8km/h 98% 0in /  0.0mm 0 W/m2
21:54 48.6 °F /  9.2 °C 48 °F /  8.9 °C 30in /  1015.2hPa NW 1.6mph /  2.5km/h 3.4mph /  5.5km/h 98% 0in /  0.0mm 0 W/m2
21:59 48.6 °F /  9.2 °C 48 °F /  8.9 °C 30in /  1015.2hPa NNW 0.7mph /  1.2km/h 2.9mph /  4.7km/h 98% 0in /  0.0mm 0 W/m2
22:04 48.6 °F /  9.2 °C 48 °F /  8.9 °C 30in /  1015.2hPa Calm   2.9mph /  4.7km/h 98% 0in /  0.0mm 0 W/m2
22:09 48.6 °F /  9.2 °C 48 °F /  8.9 °C 30in /  1015.2hPa North 0.7mph /  1.1km/h 2mph /  3.2km/h 98% 0in /  0.0mm 0 W/m2
22:14 48.6 °F /  9.2 °C 48 °F /  8.9 °C 30in /  1015.2hPa North 0.6mph /  0.9km/h 2.2mph /  3.5km/h 98% 0in /  0.0mm 0 W/m2
22:19 48.6 °F /  9.2 °C 48 °F /  8.9 °C 30in /  1015.2hPa North 2mph /  3.2km/h 3.6mph /  5.8km/h 98% 0in /  0.0mm 0 W/m2
22:24 48.7 °F /  9.3 °C 47.8 °F /  8.8 °C 30in /  1014.9hPa NNE 0.5mph /  0.8km/h 3.6mph /  5.8km/h 97.1% 0in /  0.0mm 0 W/m2
22:29 48.7 °F /  9.3 °C 47.8 °F /  8.8 °C 30in /  1015.2hPa NE 0.2mph /  0.3km/h 1.8mph /  2.9km/h 97.3% 0in /  0.0mm 0 W/m2
22:34 48.6 °F /  9.2 °C 47.8 °F /  8.8 °C 30in /  1015.2hPa Calm   1.8mph /  2.9km/h 98% 0in /  0.0mm 0 W/m2
22:39 48.6 °F /  9.2 °C 47.8 °F /  8.8 °C 30in /  1015.2hPa WNW 0.1mph /  0.2km/h 1.8mph /  2.9km/h 97.5% 0in /  0.0mm 0 W/m2
22:44 48.7 °F /  9.3 °C 47.7 °F /  8.7 °C 30in /  1015.2hPa NE 0.7mph /  1.1km/h 3.6mph /  5.8km/h 96.4% 0in /  0.0mm 0 W/m2
22:49 48.6 °F /  9.2 °C 47.7 °F /  8.7 °C 30in /  1015.2hPa NW 0.7mph /  1.1km/h 2.5mph /  4km/h 97% 0in /  0.0mm 0 W/m2
22:54 48.7 °F /  9.3 °C 47.7 °F /  8.7 °C 30in /  1015.2hPa Calm     96.2% 0in /  0.0mm 0 W/m2
22:59 48.6 °F /  9.2 °C 47.8 °F /  8.8 °C 30in /  1015.2hPa NNE 0.2mph /  0.4km/h 1.8mph /  2.9km/h 97.2% 0in /  0.0mm 0 W/m2
23:04 48.4 °F /  9.1 °C 47.7 °F /  8.7 °C 30in /  1015.2hPa Calm   2mph /  3.2km/h 97.8% 0in /  0.0mm 0 W/m2
23:09 48.4 °F /  9.1 °C 47.5 °F /  8.6 °C 30in /  1015.2hPa Calm     96.8% 0in /  0.0mm 0 W/m2
23:14 48.4 °F /  9.1 °C 47.5 °F /  8.6 °C 30in /  1015.2hPa Calm     97% 0in /  0.0mm 0 W/m2
23:19 48.2 °F /  9 °C 47.1 °F /  8.4 °C 30in /  1015.2hPa NNE 1mph /  1.6km/h 2.7mph /  4.3km/h 96.2% 0in /  0.0mm 0 W/m2
23:24 48.4 °F /  9.1 °C 47.5 °F /  8.6 °C 30in /  1015.6hPa NW 1.9mph /  3.1km/h 3.6mph /  5.8km/h 96.6% 0in /  0.0mm 0 W/m2
23:29 48.4 °F /  9.1 °C 47.3 °F /  8.5 °C 30in /  1015.6hPa NW 2.1mph /  3.3km/h 3.6mph /  5.8km/h 96.2% 0in /  0.0mm 0 W/m2
23:34 48.6 °F /  9.2 °C 47.3 °F /  8.5 °C 30in /  1015.6hPa NW 1.7mph /  2.7km/h 3.6mph /  5.8km/h 95.8% 0in /  0.0mm 0 W/m2
23:39 48.7 °F /  9.3 °C 47.7 °F /  8.7 °C 30in /  1015.6hPa NW 1.2mph /  1.9km/h 2.9mph /  4.7km/h 96.4% 0in /  0.0mm 0 W/m2
23:44 48.7 °F /  9.3 °C 47.8 °F /  8.8 °C 30in /  1015.6hPa NNW 1.5mph /  2.4km/h 3.8mph /  6.1km/h 97% 0in /  0.0mm 0 W/m2
23:49 48.7 °F /  9.3 °C 47.8 °F /  8.8 °C 30in /  1015.6hPa NNW 1.6mph /  2.6km/h 3.8mph /  6.1km/h 97% 0in /  0.0mm 0 W/m2
23:54 48.7 °F /  9.3 °C 47.8 °F /  8.8 °C 30in /  1015.6hPa North 1.6mph /  2.6km/h 3.6mph /  5.8km/h 97% 0in /  0.0mm 0 W/m2
23:59 48.9 °F /  9.4 °C 48 °F /  8.9 °C 30in /  1015.6hPa NNW 1.7mph /  2.7km/h 4.3mph /  6.9km/h 97% 0in /  0.0mm 0 W/m2
Juneau County Weather
Compliments of Weather Underground - 2 mb